Time;durP1;ratioP1;P1;durP2;ratioP2;P2;SDS_P1;SDS_P2;PMS_P1;PMS_P2;Temp;Humidity;BMP_temperature;BMP_pressure;BME280_temperature;BME280_humidity;BME280_pressure;Samples;Min_cycle;Max_cycle;Signal;HPM_P1;HPM_P2
2022/01/08 00:01:18;;;;;;;;;1.00;0.00;;;;;;;;6189782;22;8780;-89
2022/01/08 00:03:43;;;;;;;;;0.00;0.00;;;;;;;;6192192;22;9547;-90
2022/01/08 00:06:09;;;;;;;;;0.00;0.00;;;;;;;;6191975;22;8792;-88
2022/01/08 00:08:34;;;;;;;;;0.00;0.00;;;;;;;;6194899;22;8781;-89
2022/01/08 00:11:00;;;;;;;;;0.00;0.00;;;;;;;;6195950;23;8801;-90
2022/01/08 00:13:25;;;;;;;;;0.00;0.00;;;;;;;;6195231;22;8745;-90
2022/01/08 00:15:51;;;;;;;;;0.00;0.00;;;;;;;;6299435;22;8834;-91
2022/01/08 00:21:02;;;;;;;;;0.00;0.00;;;;;;;;6183385;22;8895;-90
2022/01/08 00:29:01;;;;;;;;;0.00;0.00;;;;;;;;6197951;22;3189424;-90
2022/01/08 00:31:26;;;;;;;;;0.00;0.00;;;;;;;;6387794;22;8750;-90
2022/01/08 00:33:53;;;;;;;;;0.00;0.00;;;;;;;;6385573;22;8887;-90
2022/01/08 00:36:18;;;;;;;;;0.00;0.00;;;;;;;;6384318;22;10647;-91
2022/01/08 00:38:43;;;;;;;;;0.00;0.00;;;;;;;;6382261;22;8850;-89
2022/01/08 00:41:09;;;;;;;;;0.00;0.00;;;;;;;;6354749;22;9743;-89
2022/01/08 00:43:34;;;;;;;;;0.00;0.00;;;;;;;;6355404;22;10312;-90
2022/01/08 00:45:59;;;;;;;;;1.25;1.00;;;;;;;;6383267;22;9380;-89
2022/01/08 00:48:25;;;;;;;;;0.25;0.00;;;;;;;;6383026;22;8825;-89
2022/01/08 00:50:52;;;;;;;;;2.00;0.00;;;;;;;;6382698;22;8756;-90
2022/01/08 00:53:18;;;;;;;;;1.00;0.00;;;;;;;;6356282;22;11100;-89
2022/01/08 00:55:43;;;;;;;;;0.00;0.00;;;;;;;;6383995;22;8775;-90
2022/01/08 00:58:08;;;;;;;;;0.00;0.00;;;;;;;;6354779;22;8764;-90
2022/01/08 01:00:33;;;;;;;;;0.00;0.00;;;;;;;;6354146;22;11458;-89
2022/01/08 01:02:59;;;;;;;;;0.00;0.00;;;;;;;;6382226;22;8740;-90
2022/01/08 01:05:24;;;;;;;;;2.00;0.00;;;;;;;;6383867;22;10789;-91
2022/01/08 01:07:49;;;;;;;;;0.00;0.00;;;;;;;;6354275;22;9919;-90
2022/01/08 01:10:17;;;;;;;;;0.00;0.00;;;;;;;;6355693;22;9501;-90
2022/01/08 01:12:43;;;;;;;;;0.00;0.00;;;;;;;;6383215;22;8735;-89
2022/01/08 01:15:09;;;;;;;;;0.00;0.00;;;;;;;;6383386;22;8795;-90
2022/01/08 01:17:34;;;;;;;;;0.00;0.00;;;;;;;;6354258;22;8684;-88
2022/01/08 01:20:00;;;;;;;;;0.00;0.00;;;;;;;;6355236;22;8838;-89
2022/01/08 01:22:29;;;;;;;;;0.00;0.00;;;;;;;;6381360;22;8926;-89
2022/01/08 01:25:03;;;;;;;;;0.25;0.00;;;;;;;;6383895;22;8693;-89
2022/01/08 01:30:08;;;;;;;;;0.00;0.00;;;;;;;;6234362;22;8766;-89
2022/01/08 01:41:23;;;;;;;;;0.00;0.00;;;;;;;;6225278;22;9739;-89
2022/01/08 01:49:53;;;;;;;;;0.00;0.00;;;;;;;;6163203;23;8893;-89
2022/01/08 01:52:18;;;;;;;;;0.00;0.00;;;;;;;;6135248;23;8811;-88
2022/01/08 01:54:43;;;;;;;;;0.00;0.00;;;;;;;;6162540;23;8928;-89
2022/01/08 01:57:09;;;;;;;;;0.00;0.00;;;;;;;;6137201;23;8778;-90
2022/01/08 01:59:35;;;;;;;;;0.25;0.25;;;;;;;;6137900;23;8773;-88
2022/01/08 02:02:01;;;;;;;;;0.00;0.00;;;;;;;;6136295;23;8746;-88
2022/01/08 02:04:27;;;;;;;;;2.50;0.00;;;;;;;;6163545;23;8710;-88
2022/01/08 02:06:52;;;;;;;;;0.00;0.00;;;;;;;;6159785;23;8806;-90
2022/01/08 02:09:18;;;;;;;;;0.00;0.00;;;;;;;;6194290;23;8760;-88
2022/01/08 02:11:58;;;;;;;;;0.00;0.00;;;;;;;;6168257;23;8791;-89
2022/01/08 02:14:24;;;;;;;;;0.00;0.00;;;;;;;;6174634;22;8810;-90
2022/01/08 02:16:49;;;;;;;;;1.00;0.00;;;;;;;;6283820;22;8873;-89
2022/01/08 02:19:14;;;;;;;;;0.00;0.00;;;;;;;;6277986;22;8766;-88
2022/01/08 02:21:46;;;;;;;;;0.00;0.00;;;;;;;;6327670;22;8778;-90
2022/01/08 02:24:11;;;;;;;;;0.00;0.00;;;;;;;;6223298;22;11392;-89
2022/01/08 02:26:36;;;;;;;;;0.00;0.00;;;;;;;;6327129;22;8827;-89
2022/01/08 02:29:01;;;;;;;;;4.50;0.50;;;;;;;;6221065;22;11546;-89
2022/01/08 02:31:27;;;;;;;;;1.25;0.00;;;;;;;;6326716;22;9530;-87
2022/01/08 02:33:53;;;;;;;;;2.00;0.00;;;;;;;;6221203;22;8758;-89
2022/01/08 02:36:19;;;;;;;;;0.00;0.00;;;;;;;;6323433;22;8878;-89
2022/01/08 02:38:44;;;;;;;;;1.50;0.75;;;;;;;;6214415;22;8765;-90
2022/01/08 02:41:10;;;;;;;;;1.00;1.00;;;;;;;;6215263;22;9486;-90
2022/01/08 02:43:41;;;;;;;;;1.25;0.00;;;;;;;;6217725;22;8777;-89
2022/01/08 02:46:06;;;;;;;;;0.00;0.00;;;;;;;;6217392;22;8754;-90
2022/01/08 02:48:31;;;;;;;;;0.00;0.00;;;;;;;;6216803;22;8782;-90
2022/01/08 02:50:56;;;;;;;;;0.75;0.00;;;;;;;;6322411;22;9587;-91
2022/01/08 02:53:22;;;;;;;;;0.00;0.00;;;;;;;;6216309;22;8786;-89
2022/01/08 02:55:48;;;;;;;;;0.00;0.00;;;;;;;;6321850;22;10017;-90
2022/01/08 02:58:13;;;;;;;;;0.00;0.00;;;;;;;;6322662;22;8765;-89
2022/01/08 03:00:38;;;;;;;;;0.00;0.00;;;;;;;;6217227;22;8762;-90
2022/01/08 03:03:03;;;;;;;;;2.00;1.00;;;;;;;;6322503;22;11717;-89
2022/01/08 03:05:29;;;;;;;;;0.00;0.00;;;;;;;;6217575;22;9013;-90
2022/01/08 03:07:54;;;;;;;;;3.25;0.00;;;;;;;;6215385;23;11418;-90
2022/01/08 03:10:19;;;;;;;;;0.00;0.00;;;;;;;;6216743;22;8766;-88
2022/01/08 03:12:45;;;;;;;;;0.00;0.00;;;;;;;;6215994;23;8878;-89
2022/01/08 03:15:11;;;;;;;;;0.00;0.00;;;;;;;;6323258;22;8781;-90
2022/01/08 03:17:37;;;;;;;;;1.50;0.00;;;;;;;;6215467;22;8926;-91
2022/01/08 03:20:09;;;;;;;;;0.50;0.00;;;;;;;;6323316;22;8754;-91
2022/01/08 03:22:34;;;;;;;;;1.00;1.00;;;;;;;;6215099;22;8762;-89
2022/01/08 03:25:00;;;;;;;;;5.00;0.75;;;;;;;;6323254;22;8806;-90
2022/01/08 03:27:26;;;;;;;;;0.00;0.00;;;;;;;;6323116;22;8777;-88
2022/01/08 03:29:51;;;;;;;;;1.00;1.00;;;;;;;;6322888;22;8797;-90
2022/01/08 03:32:16;;;;;;;;;1.50;0.00;;;;;;;;6215840;22;8754;-89
2022/01/08 03:34:41;;;;;;;;;1.00;1.00;;;;;;;;6216656;22;8813;-89
2022/01/08 03:37:07;;;;;;;;;2.00;0.00;;;;;;;;6215371;22;8850;-88
2022/01/08 03:39:32;;;;;;;;;1.00;0.75;;;;;;;;6216506;22;9113;-89
2022/01/08 03:41:58;;;;;;;;;0.00;0.00;;;;;;;;6218243;22;8762;-89
2022/01/08 03:44:23;;;;;;;;;0.00;0.00;;;;;;;;6219019;22;8876;-90
2022/01/08 03:46:48;;;;;;;;;0.00;0.00;;;;;;;;6216820;22;8857;-89
2022/01/08 03:49:24;;;;;;;;;0.25;0.25;;;;;;;;6216768;22;10027;-91
2022/01/08 03:51:50;;;;;;;;;1.00;0.00;;;;;;;;6217661;22;8726;-89
2022/01/08 03:54:15;;;;;;;;;1.00;1.00;;;;;;;;6218095;22;8762;-90
2022/01/08 03:56:40;;;;;;;;;0.50;0.50;;;;;;;;6218498;22;8796;-89
2022/01/08 03:59:06;;;;;;;;;1.00;1.00;;;;;;;;6323916;22;8766;-90
2022/01/08 04:01:31;;;;;;;;;0.75;0.75;;;;;;;;6322427;22;8785;-89
2022/01/08 04:03:57;;;;;;;;;1.00;1.00;;;;;;;;6323376;22;9515;-90
2022/01/08 04:06:22;;;;;;;;;1.00;0.00;;;;;;;;6218537;22;8773;-90
2022/01/08 04:08:48;;;;;;;;;0.25;0.25;;;;;;;;6323119;22;8840;-90
2022/01/08 04:11:13;;;;;;;;;2.00;2.00;;;;;;;;6218962;22;8881;-90
2022/01/08 04:13:41;;;;;;;;;1.75;1.00;;;;;;;;6324649;22;8777;-89
2022/01/08 04:16:12;;;;;;;;;4.00;2.00;;;;;;;;6218439;22;8774;-90
2022/01/08 04:18:37;;;;;;;;;1.25;1.25;;;;;;;;6218243;22;8873;-91
2022/01/08 04:23:27;;;;;;;;;1.00;1.00;;;;;;;;6217482;23;11050;-90
2022/01/08 04:25:53;;;;;;;;;1.75;1.75;;;;;;;;6216894;22;9923;-89
2022/01/08 04:28:18;;;;;;;;;2.00;1.00;;;;;;;;6322205;22;8872;-90
2022/01/08 04:30:43;;;;;;;;;1.00;1.00;;;;;;;;6218277;22;9511;-89
2022/01/08 04:33:09;;;;;;;;;2.00;1.00;;;;;;;;6217125;22;8781;-91
2022/01/08 04:35:34;;;;;;;;;2.50;1.00;;;;;;;;6222404;22;8813;-90
2022/01/08 04:37:59;;;;;;;;;1.00;1.00;;;;;;;;6321558;22;8787;-89
2022/01/08 04:40:24;;;;;;;;;1.00;1.00;;;;;;;;6216657;22;9305;-90
2022/01/08 04:42:50;;;;;;;;;0.00;0.00;;;;;;;;6322588;22;10276;-89
2022/01/08 04:45:15;;;;;;;;;0.25;0.25;;;;;;;;6322885;22;8785;-88
2022/01/08 04:47:41;;;;;;;;;0.50;0.50;;;;;;;;6320998;22;8746;-89
2022/01/08 04:50:07;;;;;;;;;2.00;0.00;;;;;;;;6217099;22;8774;-89
2022/01/08 04:52:32;;;;;;;;;1.00;1.00;;;;;;;;6216309;22;8774;-90
2022/01/08 04:54:57;;;;;;;;;0.00;0.00;;;;;;;;6218305;23;8850;-90
2022/01/08 04:57:25;;;;;;;;;1.00;1.00;;;;;;;;6216941;22;11078;-91
2022/01/08 05:02:16;;;;;;;;;3.50;1.75;;;;;;;;6186314;22;25999;-90
2022/01/08 05:04:44;;;;;;;;;2.00;2.00;;;;;;;;6196132;22;8780;-89
2022/01/08 05:07:09;;;;;;;;;2.00;2.00;;;;;;;;6307724;22;8783;-89
2022/01/08 05:09:34;;;;;;;;;1.00;1.00;;;;;;;;6205413;22;8780;-89
2022/01/08 05:12:00;;;;;;;;;1.25;1.25;;;;;;;;6296640;22;9266;-90
2022/01/08 05:14:27;;;;;;;;;1.50;1.50;;;;;;;;6292580;22;8860;-89
2022/01/08 05:16:58;;;;;;;;;0.50;0.50;;;;;;;;6187007;22;8725;-89
2022/01/08 05:19:32;;;;;;;;;2.00;1.00;;;;;;;;6186765;22;8737;-90
2022/01/08 05:21:58;;;;;;;;;1.00;1.00;;;;;;;;6187985;22;8753;-91
2022/01/08 05:24:23;;;;;;;;;4.00;4.00;;;;;;;;6291867;22;8768;-89
2022/01/08 05:26:49;;;;;;;;;2.75;1.00;;;;;;;;6187867;22;8769;-89
2022/01/08 05:29:14;;;;;;;;;1.00;1.00;;;;;;;;6291458;22;8802;-90
2022/01/08 05:31:39;;;;;;;;;6.00;2.00;;;;;;;;6291560;22;8871;-90
2022/01/08 05:34:04;;;;;;;;;1.00;1.00;;;;;;;;6186649;22;8822;-91
2022/01/08 05:36:30;;;;;;;;;2.00;2.00;;;;;;;;6291908;22;9563;-90
2022/01/08 05:38:55;;;;;;;;;3.50;1.00;;;;;;;;6292135;22;8830;-89
2022/01/08 05:41:20;;;;;;;;;2.00;1.00;;;;;;;;6292545;22;8819;-88
2022/01/08 05:43:46;;;;;;;;;3.00;2.00;;;;;;;;6290663;22;9543;-89
2022/01/08 05:46:11;;;;;;;;;1.25;1.25;;;;;;;;6291302;22;8768;-89
2022/01/08 05:48:37;;;;;;;;;4.33;1.00;;;;;;;;6290913;22;8780;-91
2022/01/08 05:51:03;;;;;;;;;2.00;2.00;;;;;;;;6187184;22;9458;-89
2022/01/08 05:53:29;;;;;;;;;2.00;2.00;;;;;;;;6292433;22;8800;-89
2022/01/08 05:55:54;;;;;;;;;1.75;1.75;;;;;;;;6186708;22;8765;-89
2022/01/08 05:58:19;;;;;;;;;1.33;1.33;;;;;;;;6187942;22;8810;-89
2022/01/08 06:00:44;;;;;;;;;3.00;2.00;;;;;;;;6187917;22;11883;-89
2022/01/08 06:03:10;;;;;;;;;1.75;1.75;;;;;;;;6188060;22;8800;-90
2022/01/08 06:05:35;;;;;;;;;1.00;1.00;;;;;;;;6189020;22;8773;-89
2022/01/08 06:08:00;;;;;;;;;2.50;1.00;;;;;;;;6291816;22;8784;-90
2022/01/08 06:10:25;;;;;;;;;6.00;2.00;;;;;;;;6292527;22;8954;-90
2022/01/08 06:12:53;;;;;;;;;2.00;2.00;;;;;;;;6186907;22;11468;-89
2022/01/08 06:15:18;;;;;;;;;1.00;1.00;;;;;;;;6186866;22;11574;-89
2022/01/08 06:17:43;;;;;;;;;3.25;1.00;;;;;;;;6291350;22;8780;-89
2022/01/08 06:20:09;;;;;;;;;1.33;1.00;;;;;;;;6291730;22;9513;-89
2022/01/08 06:22:34;;;;;;;;;1.50;0.75;;;;;;;;6185014;22;9458;-90
2022/01/08 06:24:59;;;;;;;;;3.33;3.33;;;;;;;;6292068;22;8776;-89
2022/01/08 06:27:24;;;;;;;;;1.50;1.00;;;;;;;;6186541;22;11891;-89
2022/01/08 06:29:50;;;;;;;;;1.00;1.00;;;;;;;;6186308;23;8780;-89
2022/01/08 06:32:20;;;;;;;;;1.33;1.33;;;;;;;;6186925;22;8769;-89
2022/01/08 06:34:57;;;;;;;;;4.25;1.00;;;;;;;;6292594;22;9265;-90
2022/01/08 06:37:22;;;;;;;;;4.00;1.00;;;;;;;;6186647;22;8741;-88
2022/01/08 06:39:49;;;;;;;;;2.67;1.33;;;;;;;;6186946;22;8834;-89
2022/01/08 06:42:14;;;;;;;;;2.00;1.00;;;;;;;;6291323;22;8827;-89
2022/01/08 06:44:39;;;;;;;;;2.50;2.00;;;;;;;;6291101;22;8780;-89
2022/01/08 06:47:15;;;;;;;;;4.00;1.00;;;;;;;;6291404;22;8802;-89
2022/01/08 06:49:40;;;;;;;;;3.75;1.50;;;;;;;;6291629;22;11488;-89
2022/01/08 06:52:05;;;;;;;;;0.25;0.25;;;;;;;;6186505;22;8792;-89
2022/01/08 06:54:31;;;;;;;;;4.50;1.75;;;;;;;;6186415;22;8804;-89
2022/01/08 06:56:56;;;;;;;;;1.75;1.75;;;;;;;;6291373;22;8791;-89
2022/01/08 06:59:21;;;;;;;;;1.00;1.00;;;;;;;;6291220;22;8772;-89
2022/01/08 07:01:46;;;;;;;;;1.33;1.33;;;;;;;;6290484;22;11171;-89
2022/01/08 07:04:12;;;;;;;;;2.00;2.00;;;;;;;;6186487;22;12376;-89
2022/01/08 07:06:37;;;;;;;;;5.67;2.67;;;;;;;;6187028;22;8764;-90
2022/01/08 07:09:02;;;;;;;;;3.75;1.25;;;;;;;;6289749;22;10283;-89
2022/01/08 07:11:45;;;;;;;;;;;;;;;;;;;;;
2022/01/08 07:14:11;;;;;;;;;1.00;1.00;;;;;;;;6187297;22;36302;-89
2022/01/08 07:16:36;;;;;;;;;5.00;2.00;;;;;;;;6291131;22;8804;-89
2022/01/08 07:19:01;;;;;;;;;2.75;1.25;;;;;;;;6293256;22;8772;-89
2022/01/08 07:21:26;;;;;;;;;2.00;1.00;;;;;;;;6188253;22;8781;-89
2022/01/08 07:23:53;;;;;;;;;4.00;1.00;;;;;;;;6289548;22;10107;-90
2022/01/08 07:26:18;;;;;;;;;2.00;2.00;;;;;;;;6292585;22;8772;-90
2022/01/08 07:28:43;;;;;;;;;2.00;0.25;;;;;;;;6292134;22;8772;-89
2022/01/08 07:31:08;;;;;;;;;1.75;1.00;;;;;;;;6187331;22;8819;-90
2022/01/08 07:33:34;;;;;;;;;1.00;0.00;;;;;;;;6188059;22;8737;-89
2022/01/08 07:35:59;;;;;;;;;2.00;1.00;;;;;;;;6290141;22;10426;-90
2022/01/08 07:38:24;;;;;;;;;2.00;0.33;;;;;;;;6291355;22;8764;-89
2022/01/08 07:40:51;;;;;;;;;1.00;1.00;;;;;;;;6187540;22;9017;-88
2022/01/08 07:43:19;;;;;;;;;1.50;0.50;;;;;;;;6289520;22;11486;-89
2022/01/08 07:45:45;;;;;;;;;4.00;1.00;;;;;;;;6187536;22;8749;-89
2022/01/08 07:48:10;;;;;;;;;4.00;1.25;;;;;;;;6289371;22;8800;-89
2022/01/08 07:50:35;;;;;;;;;0.00;0.00;;;;;;;;6186551;22;8784;-89
2022/01/08 07:53:01;;;;;;;;;2.00;0.00;;;;;;;;6187646;22;8763;-90
2022/01/08 07:55:26;;;;;;;;;4.00;4.00;;;;;;;;6290935;22;8788;-89
2022/01/08 07:57:51;;;;;;;;;1.00;0.00;;;;;;;;6187421;22;10992;-89
2022/01/08 08:00:16;;;;;;;;;0.33;0.33;;;;;;;;6186676;22;8781;-90
2022/01/08 08:02:42;;;;;;;;;4.00;0.25;;;;;;;;6289475;22;10363;-90
2022/01/08 08:05:07;;;;;;;;;3.33;1.00;;;;;;;;6187450;22;8826;-88
2022/01/08 08:07:37;;;;;;;;;1.00;1.00;;;;;;;;6291108;22;9189;-89
2022/01/08 08:10:03;;;;;;;;;0.00;0.00;;;;;;;;6187543;22;8751;-89
2022/01/08 08:12:28;;;;;;;;;0.00;0.00;;;;;;;;6292130;22;8749;-90
2022/01/08 08:14:53;;;;;;;;;15.75;10.25;;;;;;;;6292511;22;8804;-88
2022/01/08 08:17:19;;;;;;;;;5.25;3.50;;;;;;;;6292141;22;8791;-90
2022/01/08 08:19:44;;;;;;;;;5.75;3.00;;;;;;;;6187565;22;8765;-89
2022/01/08 08:22:09;;;;;;;;;8.75;4.00;;;;;;;;6186931;22;8744;-89
2022/01/08 08:24:34;;;;;;;;;1.25;0.75;;;;;;;;6293518;22;8812;-89
2022/01/08 08:27:00;;;;;;;;;7.33;7.33;;;;;;;;6187009;22;8760;-91
2022/01/08 08:29:25;;;;;;;;;4.50;4.50;;;;;;;;6187967;22;10102;-89
2022/01/08 08:31:50;;;;;;;;;3.33;2.00;;;;;;;;6291303;22;8780;-90
2022/01/08 08:34:15;;;;;;;;;4.33;2.00;;;;;;;;6186929;22;11142;-90
2022/01/08 08:36:40;;;;;;;;;5.00;2.67;;;;;;;;6291201;22;9171;-89
2022/01/08 08:39:06;;;;;;;;;10.67;6.67;;;;;;;;6290381;22;11059;-90
2022/01/08 08:41:31;;;;;;;;;9.50;7.00;;;;;;;;6186107;23;11512;-89
2022/01/08 08:43:56;;;;;;;;;10.00;9.00;;;;;;;;6189601;22;8842;-88
2022/01/08 08:46:22;;;;;;;;;7.50;4.25;;;;;;;;6295751;22;11586;-90
2022/01/08 08:48:47;;;;;;;;;7.00;4.00;;;;;;;;6295467;22;8780;-88
2022/01/08 08:51:12;;;;;;;;;9.33;4.33;;;;;;;;6192335;22;8772;-89
2022/01/08 08:53:37;;;;;;;;;5.33;5.33;;;;;;;;6298020;22;10231;-89
2022/01/08 08:56:04;;;;;;;;;9.00;6.50;;;;;;;;6192475;22;11521;-88
2022/01/08 08:58:33;;;;;;;;;9.50;4.75;;;;;;;;6295105;22;8775;-89
2022/01/08 09:00:58;;;;;;;;;7.00;4.25;;;;;;;;6295918;22;8765;-88
2022/01/08 09:03:23;;;;;;;;;2.00;1.33;;;;;;;;6191391;22;8788;-89
2022/01/08 09:05:48;;;;;;;;;4.33;2.67;;;;;;;;6191461;22;9186;-88
2022/01/08 09:08:13;;;;;;;;;1.00;1.00;;;;;;;;6191484;22;9170;-88
2022/01/08 09:10:39;;;;;;;;;4.00;4.00;;;;;;;;6191311;22;10016;-90
2022/01/08 09:13:04;;;;;;;;;6.50;6.50;;;;;;;;6192437;22;10137;-90
2022/01/08 09:15:29;;;;;;;;;8.50;7.50;;;;;;;;6190293;22;8858;-87
2022/01/08 09:17:58;;;;;;;;;10.50;9.00;;;;;;;;6191775;22;8761;-89
2022/01/08 09:20:26;;;;;;;;;17.25;11.75;;;;;;;;6297269;22;8776;-88
2022/01/08 09:22:52;;;;;;;;;18.25;11.00;;;;;;;;6190287;22;8825;-89
2022/01/08 09:25:17;;;;;;;;;9.00;6.25;;;;;;;;6297107;22;8791;-90
2022/01/08 09:27:42;;;;;;;;;4.25;4.00;;;;;;;;6194282;22;8780;-90
2022/01/08 09:30:08;;;;;;;;;8.00;6.50;;;;;;;;6192118;23;8773;-90
2022/01/08 09:32:33;;;;;;;;;4.00;3.25;;;;;;;;6296585;22;8808;-90
2022/01/08 09:34:58;;;;;;;;;11.00;4.75;;;;;;;;6192079;22;8796;-90
2022/01/08 09:49:32;;;;;;;;;8.75;8.00;;;;;;;;6182651;22;8718;-91
2022/01/08 09:51:58;;;;;;;;;8.00;5.75;;;;;;;;6193306;23;9546;-92
2022/01/08 09:54:24;;;;;;;;;11.25;7.25;;;;;;;;6299756;22;8845;-91
2022/01/08 09:56:50;;;;;;;;;9.00;7.25;;;;;;;;6192608;22;8779;-91
2022/01/08 09:59:15;;;;;;;;;7.00;4.75;;;;;;;;6296845;22;9550;-91
2022/01/08 10:01:40;;;;;;;;;7.50;5.75;;;;;;;;6192603;22;8748;-91
2022/01/08 10:04:06;;;;;;;;;6.25;6.00;;;;;;;;6191214;22;8783;-91
2022/01/08 10:06:33;;;;;;;;;8.75;6.75;;;;;;;;6191013;22;8814;-92
2022/01/08 10:08:59;;;;;;;;;11.00;7.00;;;;;;;;6189724;22;8696;-92
2022/01/08 10:11:27;;;;;;;;;6.50;5.00;;;;;;;;6296835;22;8853;-91
2022/01/08 10:14:03;;;;;;;;;13.75;7.00;;;;;;;;6298801;22;8832;-91
2022/01/08 10:22:19;;;;;;;;;9.50;9.50;;;;;;;;6194938;23;8749;-91
2022/01/08 10:25:04;;;;;;;;;9.75;7.00;;;;;;;;6298545;22;8747;-92
2022/01/08 10:27:34;;;;;;;;;15.50;10.50;;;;;;;;6195723;22;8700;-91
2022/01/08 10:29:59;;;;;;;;;18.50;15.00;;;;;;;;6191363;22;8775;-90
2022/01/08 10:32:26;;;;;;;;;15.00;11.00;;;;;;;;6296017;22;8851;-89
2022/01/08 10:34:51;;;;;;;;;19.75;13.00;;;;;;;;6297542;22;11557;-89
2022/01/08 10:37:16;;;;;;;;;22.25;17.75;;;;;;;;6191253;22;8768;-90
2022/01/08 10:39:41;;;;;;;;;11.50;9.00;;;;;;;;6194345;22;8816;-88
2022/01/08 10:42:07;;;;;;;;;14.25;13.50;;;;;;;;6191725;22;8832;-89
2022/01/08 10:44:32;;;;;;;;;19.33;13.67;;;;;;;;6298564;22;8786;-89
2022/01/08 10:46:59;;;;;;;;;13.50;6.00;;;;;;;;6192819;22;11519;-91
2022/01/08 10:49:44;;;;;;;;;14.25;10.00;;;;;;;;6299233;22;8811;-90
2022/01/08 10:52:20;;;;;;;;;14.00;10.50;;;;;;;;6297414;22;8767;-91
2022/01/08 11:04:53;;;;;;;;;;;;;;;;;;;;;
2022/01/08 11:07:30;;;;;;;;;14.25;9.25;;;;;;;;6133681;23;35392;-93
2022/01/08 11:10:15;;;;;;;;;;;;;;;;;;;;;
2022/01/08 11:13:18;;;;;;;;;;;;;;;;;;;;;
2022/01/08 11:16:14;;;;;;;;;14.00;7.00;;;;;;;;6173212;22;8761;-91
2022/01/08 11:18:35;;;;;;;;;16.75;8.50;;;;;;;;6195401;22;8760;-91
2022/01/08 11:21:01;;;;;;;;;10.25;7.25;;;;;;;;6192661;22;8764;-92
2022/01/08 11:23:30;;;;;;;;;9.00;7.00;;;;;;;;6302876;22;8792;-90
2022/01/08 11:25:57;;;;;;;;;11.50;9.50;;;;;;;;6297294;22;8778;-91
2022/01/08 11:28:31;;;;;;;;;8.50;7.00;;;;;;;;6192550;22;8748;-92
2022/01/08 11:31:01;;;;;;;;;11.25;6.00;;;;;;;;6298406;22;9090;-93
2022/01/08 11:33:43;;;;;;;;;;;;;;;;;;;;;
2022/01/08 11:36:31;;;;;;;;;9.00;6.50;;;;;;;;6188121;23;36284;-93
2022/01/08 11:39:01;;;;;;;;;13.50;7.50;;;;;;;;6195787;22;8744;-92
2022/01/08 11:41:28;;;;;;;;;16.00;10.25;;;;;;;;6192918;22;8845;-95
2022/01/08 11:44:02;;;;;;;;;11.25;10.25;;;;;;;;6193363;22;8701;-91
2022/01/08 11:46:38;;;;;;;;;;;;;;;;;;;;;
2022/01/08 11:54:13;;;;;;;;;8.75;5.00;;;;;;;;6195718;22;8826;-92
2022/01/08 11:56:39;;;;;;;;;9.75;5.00;;;;;;;;6193096;22;8772;-92
2022/01/08 11:59:07;;;;;;;;;13.50;6.25;;;;;;;;6191253;22;8785;-92
2022/01/08 12:01:36;;;;;;;;;13.75;7.50;;;;;;;;6296582;22;8783;-94
2022/01/08 12:04:05;;;;;;;;;5.25;5.25;;;;;;;;6292473;22;9817;-92
2022/01/08 12:06:37;;;;;;;;;8.75;3.50;;;;;;;;6196995;22;8789;-92
2022/01/08 12:09:23;;;;;;;;;7.00;5.00;;;;;;;;6300874;22;8748;-88
2022/01/08 12:11:50;;;;;;;;;5.75;3.50;;;;;;;;6195280;22;8693;-90
2022/01/08 12:20:51;;;;;;;;;6.50;4.50;;;;;;;;6184038;22;8784;-92
2022/01/08 12:23:47;;;;;;;;;10.00;4.50;;;;;;;;6192981;22;8767;-91
2022/01/08 12:26:28;;;;;;;;;;;;;;;;;;;;;
2022/01/08 12:29:29;;;;;;;;;;;;;;;;;;;;;
2022/01/08 13:08:12;;;;;;;;;12.50;4.00;;;;;;;;6186498;22;9347;-91
2022/01/08 13:37:37;;;;;;;;;6.25;3.50;;;;;;;;6206624;23;8746;-94
2022/01/08 13:52:02;;;;;;;;;5.75;2.00;;;;;;;;6216465;23;9629;-78
2022/01/08 14:05:15;;;;;;;;;9.25;6.00;;;;;;;;6197849;22;8732;-90
2022/01/08 14:37:33;;;;;;;;;;;;;;;;;;;;;
2022/01/08 14:40:44;;;;;;;;;;;;;;;;;;;;;
2022/01/08 14:43:23;;;;;;;;;16.00;5.00;;;;;;;;6233607;23;35886;-95
2022/01/08 14:45:51;;;;;;;;;5.00;3.00;;;;;;;;6229774;23;8788;-95
2022/01/08 14:48:22;;;;;;;;;2.25;2.00;;;;;;;;6222199;22;8703;-78
2022/01/08 14:50:47;;;;;;;;;6.00;4.75;;;;;;;;6180997;22;8736;-78
2022/01/08 14:53:40;;;;;;;;;6.00;5.00;;;;;;;;6209681;22;8752;-77
2022/01/08 15:01:43;;;;;;;;;;;;;;;;;;;;;
2022/01/08 15:05:07;;;;;;;;;;;;;;;;;;;;;
2022/01/08 15:08:08;;;;;;;;;;;;;;;;;;;;;
2022/01/08 15:11:19;;;;;;;;;;;;;;;;;;;;;
2022/01/08 15:13:47;;;;;;;;;5.25;3.75;;;;;;;;6155406;23;36371;-81
2022/01/08 15:16:15;;;;;;;;;5.00;3.00;;;;;;;;6130056;23;8731;-78
2022/01/08 15:32:04;;;;;;;;;;;;;;;;;;;;;
2022/01/08 15:37:05;;;;;;;;;4.75;2.00;;;;;;;;6154836;22;8828;-80
2022/01/08 15:47:15;;;;;;;;;4.50;3.00;;;;;;;;6181105;22;8961;-80
2022/01/08 15:49:42;;;;;;;;;2.50;1.75;;;;;;;;6288779;22;8800;-80
2022/01/08 15:58:00;;;;;;;;;;;;;;;;;;;;;
2022/01/08 16:06:50;;;;;;;;;2.00;2.00;;;;;;;;6110005;23;8747;-93
2022/01/08 16:09:15;;;;;;;;;7.00;3.00;;;;;;;;6095954;22;8843;-83
2022/01/08 16:12:02;;;;;;;;;2.00;0.67;;;;;;;;6295360;22;8779;-85
2022/01/08 16:14:27;;;;;;;;;1.75;1.00;;;;;;;;6197178;22;9378;-90
2022/01/08 16:16:55;;;;;;;;;4.50;2.25;;;;;;;;6298208;22;8939;-90
2022/01/08 16:22:06;;;;;;;;;1.00;1.00;;;;;;;;6194888;23;8776;-92
2022/01/08 16:24:39;;;;;;;;;5.25;2.25;;;;;;;;6299432;22;8835;-93
2022/01/08 16:27:17;;;;;;;;;;;;;;;;;;;;;
2022/01/08 16:29:52;;;;;;;;;5.00;2.50;;;;;;;;6196384;22;36324;-93
2022/01/08 16:32:37;;;;;;;;;2.75;2.75;;;;;;;;6197097;22;8713;-93
2022/01/08 16:40:59;;;;;;;;;;;;;;;;;;;;;
2022/01/08 16:43:27;;;;;;;;;2.00;1.00;;;;;;;;6197309;22;37120;-93
2022/01/08 16:46:05;;;;;;;;;;;;;;;;;;;;;
2022/01/08 17:01:24;;;;;;;;;1.75;1.00;;;;;;;;6215274;22;8874;-79
2022/01/08 17:07:19;;;;;;;;;;;;;;;;;;;;;
2022/01/08 17:13:04;;;;;;;;;2.00;2.00;;;;;;;;6317898;22;8744;-93
2022/01/08 17:25:00;;;;;;;;;2.00;1.00;;;;;;;;6318806;22;8744;-96
2022/01/08 17:36:52;;;;;;;;;2.00;1.00;;;;;;;;6213844;22;8756;-93
2022/01/08 18:05:07;;;;;;;;;2.25;1.75;;;;;;;;6097409;22;8784;-80
2022/01/08 18:07:37;;;;;;;;;8.75;6.00;;;;;;;;6280515;22;8855;-92
2022/01/08 18:12:39;;;;;;;;;4.00;3.00;;;;;;;;6201620;22;8827;-92
2022/01/08 18:15:09;;;;;;;;;5.00;5.00;;;;;;;;6196918;22;8914;-94
2022/01/08 18:17:47;;;;;;;;;;;;;;;;;;;;;
2022/01/08 18:20:30;;;;;;;;;4.50;1.25;;;;;;;;6199797;22;36448;-96
2022/01/08 18:23:01;;;;;;;;;2.50;2.00;;;;;;;;6298194;22;8753;-94
2022/01/08 18:29:50;;;;;;;;;0.00;0.00;;;;;;;;6137242;23;8689;-93
2022/01/08 18:38:35;;;;;;;;;0.00;0.00;;;;;;;;5987516;23;8911;-93
2022/01/08 18:44:44;;;;;;;;;0.50;0.00;;;;;;;;5909821;24;8770;-93
2022/01/08 18:53:32;;;;;;;;;0.75;0.75;;;;;;;;6135268;23;8709;-79
2022/01/08 19:05:27;;;;;;;;;;;;;;;;;;;;;
2022/01/08 19:07:53;;;;;;;;;1.00;0.00;;;;;;;;6218681;23;37347;-94
2022/01/08 20:07:32;;;;;;;;;;;;;;;;;;;;;
2022/01/08 20:10:27;;;;;;;;;0.75;0.75;;;;;;;;6386961;22;8782;-95
2022/01/08 20:13:39;;;;;;;;;2.00;2.00;;;;;;;;6363346;22;8765;-95
2022/01/08 20:18:54;;;;;;;;;1.00;1.00;;;;;;;;6332207;22;8756;-80
2022/01/08 20:21:36;;;;;;;;;1.75;1.00;;;;;;;;6337345;22;8750;-83
2022/01/08 20:27:04;;;;;;;;;0.00;0.00;;;;;;;;6350417;22;8742;-82
2022/01/08 20:29:29;;;;;;;;;1.00;1.00;;;;;;;;6371307;22;8786;-82
2022/01/08 20:34:30;;;;;;;;;1.75;0.00;;;;;;;;6187594;22;8784;-84
2022/01/08 20:36:58;;;;;;;;;1.75;0.25;;;;;;;;6188183;23;8812;-83
